• Join FlightAware (Why Join?)
  • Login
  • US Flag 
06:37PM EDT


 

Airport Tracker/Info


-or-


 

Live Flight TrackerFlight Track Log ✈ N450HC ✈ 03-May-2013 ✈ KBOS - KOIC

Flight Track Log - Related Links

Times and Time Zones

All times are in EDT time to prevent confusion due to time zone crossing. See the N450HC flight status page for this flight to view local times or setup timezone preferences in your user account.

Time Position Orientation Groundspeed Altitude Reporting Facility
EDT Latitude Longitude Course Direction KTS MPH feet Rate Location/Type
06:07PM 42.3833 -71.0000 294° West 127 146 600  Level KA90
06:08PM 42.4000 -71.0500 294° West 162 186 2,900 1,500 Climbing KA90
06:09PM 42.3703 -71.1503 248° West 181 208 5,000 1,260 Climbing Boston Center
06:10PM 42.3458 -71.2153 243° Southwest 187 215 6,400 1,200 Climbing Boston Center
06:11PM 42.3383 -71.2828 261° West 187 215 7,400 840 Climbing Boston Center
06:12PM 42.3367 -71.3333 267° West 193 222 8,100 1,080 Climbing Boston Center
06:13PM 42.3311 -71.4178 265° West 191 220 9,600 1,380 Climbing Boston Center
06:14PM 42.3319 -71.4964 271° West 191 220 10,900 1,140 Climbing Boston Center
06:15PM 42.3242 -71.5639 261° West 196 226 11,900 960 Climbing Boston Center
06:16PM 42.3206 -71.6369 266° West 201 231 12,900 960 Climbing Boston Center
06:17PM 42.3147 -71.7214 265° West 201 231 13,900 900 Climbing Boston Center
06:18PM 42.3089 -71.7889 263° West 201 231 14,700 540 Climbing Boston Center
06:19PM 42.3031 -71.8786 265° West 213 245 15,000 120 Climbing Boston Center
06:21PM 42.2828 -71.9631 252° West 230 265 15,000  Level Boston Center
06:22PM 42.2622 -72.0669 255° West 248 285 15,000  Level Boston Center
06:23PM 42.2625 -72.1567 270° West 240 276 15,000 180 Level Boston Center
06:24PM 42.2689 -72.2436 276° West 235 270 15,400 360 Climbing Boston Center
06:25PM 42.2711 -72.3333 272° West 225 259 15,900 240 Climbing Boston Center
06:26PM 42.2753 -72.4261 274° West 225 259 16,000  Climbing Boston Center
06:27PM 42.2775 -72.5047 272° West 236 272 16,000  Level Boston Center
06:28PM 42.2814 -72.6000 273° West 236 272 16,000  Level Boston Center
06:29PM 42.2833 -72.6897 272° West 236 272 16,000  Level Boston Center
06:30PM 42.2875 -72.7711 274° West 236 272 16,000  Level Boston Center
06:31PM 42.2892 -72.8694 271° West 236 272 16,000  Level Boston Center
06:32PM 42.2908 -72.9508 272° West 236 272 16,000  Level Boston Center
06:33PM 42.3008 -73.0492 278° West 236 272 16,000  Level Boston Center
06:34PM 42.3086 -73.1278 278° West 236 272 16,000 -360 Level Boston Center
06:35PM 42.3164 -73.2292 276° West 236 272 15,300 -960 Descending Boston Center
06:36PM 42.3261 -73.3219 278° West 257 296 14,100 -1,200 Descending Boston Center
06:37PM 42.3314 -73.4369 274° West 276 318 13,000 -900 Descending Boston Center
06:38PM 42.3389 -73.5214 277° West 266 306 12,300 -480 Descending Boston Center
06:39PM 42.3464 -73.6200 276° West 254 292 12,000 -240 Descending Boston Center
06:40PM 42.3536 -73.7128 276° West 238 274 11,900  Descending Boston Center
06:41PM 42.3608 -73.8083 276° West 231 266 12,000  Climbing Boston Center
06:42PM 42.3683 -73.8817 278° West 231 266 12,000  Level Boston Center
06:43PM 42.3733 -73.9744 274° West 236 272 12,000  Level Boston Center
06:44PM 42.3786 -74.0506 275° West 236 272 12,000 -60 Level Boston Center
06:45PM 42.3875 -74.1436 277° West 236 272 11,900 -60 Descending Boston Center
06:46PM 42.3928 -74.2194 275° West 230 265 11,900  Level Boston Center
06:47PM 42.3994 -74.3125 276° West 230 265 11,900  Level Boston Center
06:48PM 42.4044 -74.3886 275° West 230 265 11,900  Level Boston Center
06:49PM 42.4111 -74.4817 276° West 230 265 11,900  Level Boston Center
06:50PM 42.4161 -74.5550 275° West 230 265 11,900  Level Boston Center
06:51PM 42.4247 -74.6508 277° West 235 270 11,900  Level Boston Center
06:52PM 42.4294 -74.7242 275° West 235 270 11,900 -780 Level Boston Center
06:53PM 42.4358 -74.8172 275° West 257 296 10,400 -1,500 Descending Boston Center
06:54PM 42.4442 -74.9244 276° West 264 304 8,900 -1,080 Descending Boston Center
06:55PM 42.4506 -75.0119 276° West 257 296 8,300 -720 Descending Boston Center
06:56PM 42.4569 -75.0967 276° West 243 280 7,400 -1,200 Descending Boston Center
06:57PM 42.4650 -75.1956 276° West 237 273 5,700 -1,500 Descending Boston Center
06:58PM 42.4814 -75.2892 283° West 237 273 4,400 -780 Descending Boston Center
06:59PM 42.5086 -75.3636 296° West 231 266 4,200 -120 Descending Boston Center
07:00PM 42.5194 -75.4261 283° West 206 237 4,200 -300 Level Boston Center
07:01PM 42.5097 -75.4850 257° West 163 188 3,700 -900 Descending Boston Center
07:02PM 42.5081 -75.5411 268° West 145 167 2,400 240 Descending Boston Center
07:03PM 42.5067 -75.5975 268° West 145 167 4,200 900 Climbing Boston Center
07:04PM 42.5050 -75.6536 268° West 145 167 4,200  Level Boston Center
07:05PM 42.5606 -75.5297 59° Northeast 145 167 4,200  Level Boston Center
07:06PM 42.5644 -75.5383 302° West 145 167 4,200  Level Boston Center
07:07PM 42.5972 -75.6331 295° West 145 167 4,200  Level Boston Center
07:08PM 42.6322 -75.7253 297° West 145 167 4,200  Level Boston Center
07:09PM 42.6592 -75.8000 296° West 145 167 4,200  Level Boston Center
07:10PM 42.5667 -75.5328 115° Southeast 145 167 4,200  Level Boston Center
07:11PM 42.5667 -75.5328 154° Southeast 145 167 4,200  Level Boston Center